Tiempo atmosférico en la estación meteorológica de Motril, Puerto, Granada (3 m.)



Fecha
DESCASC
Temp. máxima en grados centígrados (hora)
DESCASC
Temp. mínima en grados centígrados (hora)
DESCASC
Temp. media en grados centígrados
DESCASC
Racha de viento máxima en m/sg (hora)
DESCASC
Velocidad máxima media en intervalos de 10 minutos(hora)
DESCASC
Precipitaciones diarias en mm
DESCASC
Precipitaciones de 00:00 a 06:00 en mm
DESCASC
Precipitaciones de 06:00 a 12:00 en mm
DESCASC
Precipitaciones de 12:00 a 18:00 en mm
DESCASC
Precipitaciones de 18:00 a 24:00 en mm
DESCASC
28-05-2020 -- (--) -- (--) -- 8.06 (18:20) 4.72 (18:20) 0 0 0 0 0
27-05-2020 -- (--) -- (--) -- 13.61 (16:00) 8.89 (16:00) 0 0 0 0 0
26-05-2020 -- (--) -- (--) -- 5.28 (10:40) 3.33 (10:40) 0 0 0 0 0
25-05-2020 -- (--) -- (--) -- 5.28 (12:20) 3.06 (12:10) 0 0 0 0 0
24-05-2020 -- (--) -- (--) -- 8.61 (18:00) 6.39 (17:50) 0 0 0 0 0
23-05-2020 -- (--) -- (--) -- 6.11 (15:30) 3.89 (14:20) 0 0 0 0 0
22-05-2020 -- (--) -- (--) -- 4.44 (21:50) 3.33 (21:50) 0 0 0 0 0
21-05-2020 -- (--) -- (--) -- 9.17 (14:40) 6.39 (14:20) 0 0 0 0 0
20-05-2020 -- (--) -- (--) -- 6.39 (13:40) 3.33 (13:20) 0 0 0 0 0
19-05-2020 -- (--) -- (--) -- 5 (20:10) 3.06 (13:40) 0 0 0 0 0
18-05-2020 -- (--) -- (--) -- 4.72 (15:20) 2.22 (11:00) 0 0 0 0 0
17-05-2020 -- (--) -- (--) -- 4.17 (19:00) 3.33 (13:00) 0 0 0 0 0
16-05-2020 -- (--) -- (--) -- 3.89 (20:30) 2.22 (20:30) 0.4 0 0 0.4 0
15-05-2020 -- (--) -- (--) -- 6.11 (17:50) 4.72 (14:40) 0 0 0 0 0
14-05-2020 -- (--) -- (--) -- 10.28 (13:00) 5.56 (12:30) 0 0 0 0 0
13-05-2020 -- (--) -- (--) -- 14.44 (21:50) 7.5 (21:50) 0 0 0 0 0
12-05-2020 -- (--) -- (--) -- 10 (13:20) 6.11 (06:00) 13.2 0.2 12 1 0
11-05-2020 -- (--) -- (--) -- 13.61 (15:10) 7.5 (13:40) 0 0 0 0 0
10-05-2020 -- (--) -- (--) -- 12.78 (23:20) 7.78 (23:30) 0 0 0 0 0
09-05-2020 -- (--) -- (--) -- 11.39 (20:10) 6.39 (20:00) 0 0 0 0 0
08-05-2020 -- (--) -- (--) -- 5.56 (14:10) 3.89 (14:40) 0 0 0 0 0
07-05-2020 -- (--) -- (--) -- 8.61 (14:20) 6.11 (02:20) 0 0 0 0 0
06-05-2020 -- (--) -- (--) -- 7.78 (13:30) 5.83 (13:20) 0 0 0 0 0
05-05-2020 -- (--) -- (--) -- 6.39 (19:10) 3.61 (16:40) 0 0 0 0 0
04-05-2020 -- (--) -- (--) -- 9.17 (16:00) 5.56 (15:40) 0 0 0 0 0
03-05-2020 -- (--) -- (--) -- 8.89 (15:10) 5.83 (15:10) 0.2 0 0 0 0.2
02-05-2020 -- (--) -- (--) -- 4.44 (04:10) 2.5 (13:40) 0 0 0 0 0

Gráficas

Temp. máximas Temp. mínimas Temp. medias Precipitaciones Rachas de viento máximas Velocidades máximas media en intervalos de 10 minutos

Datos horarios

Fecha y hora oficial Temperatura (ºC) Velocidad del viento (km/h) Dirección del viento Racha (km/h) Dirección de racha Precipitación (mm) Presión (hPa) Tendencia (hPa) Humedad (%)
2020-05-31 23:00:00 -- 5 Noroeste 24 Oeste 0 -- -- 69
2020-05-31 22:00:00 -- 15 Oeste 33 Oeste 0 -- -- 71
2020-05-31 21:00:00 -- 8 Sudoeste 40 Sudeste 0 -- -- 51
2020-05-31 20:00:00 -- 18 Este 52 Norte 0 -- -- 45
2020-05-31 19:00:00 -- 8 Nordeste 29 Oeste 0.4 -- -- 67
2020-05-31 18:00:00 -- 19 Oeste 38 Oeste 0 -- -- 60
2020-05-31 17:00:00 -- 16 Oeste 39 Oeste 0 -- -- 57
2020-05-31 16:00:00 -- 19 Oeste 36 Oeste 0 -- -- 62
2020-05-31 15:00:00 -- 12 Oeste 24 Oeste 0 -- -- 54
2020-05-31 14:00:00 -- 6 Sudoeste 16 Oeste 0 -- -- 59
2020-05-31 13:00:00 -- 5 Oeste 20 Oeste 0 -- -- 68
2020-05-31 12:00:00 -- 6 Sudoeste 11 Sudoeste 0 -- -- 58
2020-05-31 11:00:00 -- 3 Sur 9 Sur 0 -- -- 55
2020-05-31 10:00:00 -- 4 Sudoeste 9 Sudoeste 0 -- -- 57
2020-05-31 09:00:00 -- 3 Este 8 Este 0 -- -- 64
2020-05-31 08:00:00 -- 0 Calma 8 Nordeste 0 -- -- 77
2020-05-31 07:00:00 -- 2 Noroeste 5 Norte 0.2 -- -- 84
2020-05-31 06:00:00 -- 0 Calma 5 Noroeste 0 -- -- 84
2020-05-31 05:00:00 -- 0 Calma 7 Norte 0 -- -- 83
2020-05-31 04:00:00 -- 3 Nordeste 7 Nordeste 0 -- -- 83
2020-05-31 03:00:00 -- 0 Calma 6 Este 0 -- -- 85
2020-05-31 02:00:00 -- 2 Noroeste 5 Noroeste 0 -- -- 84
2020-05-31 01:00:00 -- 0 Calma 5 Este 0 -- -- 84
2020-05-31 00:00:00 -- 3 Nordeste 5 Nordeste 0 -- -- 83
2020-05-30 23:00:00 -- 2 Noroeste 8 Noroeste 0 -- -- 82
2020-05-30 22:00:00 -- 4 Oeste 15 Sudoeste 0 -- -- 81
2020-05-30 21:00:00 -- 6 Sur 20 Sudeste 0 -- -- 79
2020-05-30 20:00:00 -- 16 Sudeste 27 Sudeste 0 -- -- 81
2020-05-30 19:00:00 -- 17 Sudeste 31 Sudeste 0 -- -- 79
2020-05-30 18:00:00 -- 23 Sudeste 33 Sudeste 0 -- -- 80
2020-05-30 17:00:00 -- 23 Sudeste 31 Sudeste 0 -- -- 79
2020-05-30 16:00:00 -- 28 Sudeste 41 Sudeste 0 -- -- 80
2020-05-30 15:00:00 -- 30 Sudeste 35 Sudeste 0 -- -- 78
2020-05-30 14:00:00 -- 27 Sudeste 36 Sudeste 0 -- -- 77
2020-05-30 13:00:00 -- 28 Sudeste 39 Sudeste 0 -- -- 72
2020-05-30 12:00:00 -- 23 Sudeste 32 Sudeste 0 -- -- 71
2020-05-30 11:00:00 -- 22 Sudeste 31 Sudeste 0 -- -- 68
2020-05-30 10:00:00 -- 21 Sudeste 26 Sudeste 0 -- -- 69
2020-05-30 09:00:00 -- 3 Sur 7 Sur 0 -- -- 52
2020-05-30 08:00:00 -- 0 Calma 5 Nordeste 0 -- -- 65
2020-05-30 07:00:00 -- 0 Calma 3 Nordeste 0 -- -- 74
2020-05-30 06:00:00 -- 2 Norte 4 Noroeste 0 -- -- 73
2020-05-30 05:00:00 -- 0 Calma 5 Sudeste 0 -- -- 73
2020-05-30 04:00:00 -- 3 Nordeste 5 Nordeste 0 -- -- 72
2020-05-30 03:00:00 -- 0 Calma 3 Nordeste 0 -- -- 72
2020-05-30 02:00:00 -- 2 Nordeste 4 Nordeste 0 -- -- 71
2020-05-30 01:00:00 -- 0 Calma 5 Nordeste 0 -- -- 68
2020-05-30 00:00:00 -- 3 Nordeste 7 Este 0 -- -- 66
2020-05-29 23:00:00 -- 3 Sudeste 5 Sur 0 -- -- 70
2020-05-29 22:00:00 -- 3 Sur 9 Sudoeste 0 -- -- 64
2020-05-29 21:00:00 -- 5 Sudoeste 16 Oeste 0 -- -- 54
2020-05-29 20:00:00 -- 5 Oeste 14 Sudoeste 0 -- -- 57
2020-05-29 19:00:00 -- 7 Sudoeste 14 Sudoeste 0 -- -- 44
2020-05-29 18:00:00 -- 8 Sudoeste 16 Sudoeste 0 -- -- 42
2020-05-29 17:00:00 -- 8 Sudoeste 17 Sudoeste 0 -- -- 44
2020-05-29 16:00:00 -- 8 Sudoeste 17 Sudoeste 0 -- -- 45
2020-05-29 15:00:00 -- 10 Sudoeste 19 Sudoeste 0 -- -- 47
2020-05-29 14:00:00 -- 7 Sudoeste 19 Oeste 0 -- -- 39
2020-05-29 13:00:00 -- 8 Sudoeste 19 Sudoeste 0 -- -- 47
2020-05-29 12:00:00 -- 10 Sudoeste 21 Oeste 0 -- -- 53
2020-05-29 11:00:00 -- 9 Oeste 18 Oeste 0 -- -- 50
2020-05-29 10:00:00 -- 6 Sudoeste 11 Sudoeste 0 -- -- 51
2020-05-29 09:00:00 -- 3 Sudoeste 5 Sudoeste 0 -- -- 56
2020-05-29 08:00:00 -- 0 Calma 5 Este 0 -- -- 68
2020-05-29 07:00:00 -- 0 Calma 6 Noroeste 0 -- -- 74
2020-05-29 06:00:00 -- 2 Noroeste 5 Oeste 0 -- -- 73
2020-05-29 05:00:00 -- 3 Sudeste 6 Nordeste 0 -- -- 76
2020-05-29 04:00:00 -- 5 Noroeste 8 Noroeste 0 -- -- 79
2020-05-29 03:00:00 -- 5 Sur 8 Sudoeste 0 -- -- 80
2020-05-29 02:00:00 -- 3 Nordeste 8 Noroeste 0 -- -- 77
2020-05-29 01:00:00 -- 5 Noroeste 7 Oeste 0 -- -- 78
2020-05-29 00:00:00 -- 2 Este 9 Nordeste 0 -- -- 78
2020-05-28 23:00:00 -- 3 Sur 9 Oeste 0 -- -- 78
2020-05-28 22:00:00 -- 0 Calma 8 Sur 0 -- -- 74
2020-05-28 21:00:00 -- 5 Oeste 27 Oeste 0 -- -- 69
2020-05-28 20:00:00 -- 13 Oeste 28 Oeste 0 -- -- 62
2020-05-28 19:00:00 -- 13 Oeste 29 Oeste 0 -- -- 58
2020-05-28 18:00:00 -- 14 Oeste 27 Oeste 0 -- -- 60
2020-05-28 17:00:00 -- 9 Oeste 28 Oeste 0 -- -- 47
2020-05-28 16:00:00 -- 14 Oeste 27 Oeste 0 -- -- 49
2020-05-28 15:00:00 -- 11 Oeste 29 Oeste 0 -- -- 45
2020-05-28 14:00:00 -- 10 Oeste 23 Oeste 0 -- -- 44
2020-05-28 13:00:00 -- 10 Sudoeste 21 Sudoeste 0 -- -- 46
2020-05-28 12:00:00 -- 10 Sudoeste 15 Sudoeste 0 -- -- 53
2020-05-28 11:00:00 -- 8 Sudoeste 14 Sudoeste 0 -- -- 56
2020-05-28 10:00:00 -- 6 Sudoeste 10 Sudoeste 0 -- -- 54
2020-05-28 09:00:00 -- 3 Sur 6 Sur 0 -- -- 61
2020-05-28 08:00:00 -- 0 Calma 6 Norte 0 -- -- 78
2020-05-28 07:00:00 -- 0 Calma 5 Oeste 0 -- -- 78
2020-05-28 06:00:00 -- 0 Calma 5 Sudeste 0 -- -- 77
2020-05-28 05:00:00 -- 3 Noroeste 6 Nordeste 0 -- -- 76
2020-05-28 04:00:00 -- 4 Nordeste 8 Nordeste 0 -- -- 75
2020-05-28 03:00:00 -- 2 Nordeste 5 Norte 0 -- -- 77
2020-05-28 02:00:00 -- 3 Oeste 8 Oeste 0 -- -- 75
2020-05-28 01:00:00 -- 2 Nordeste 7 Sudeste 0 -- -- 74
2020-05-28 00:00:00 -- 3 Nordeste 6 Este 0 -- -- 73
2020-05-27 23:00:00 -- 0 Calma 6 Sudoeste 0 -- -- 74
2020-05-27 22:00:00 -- 4 Sudoeste 12 Sudoeste 0 -- -- 71
2020-05-27 21:00:00 -- 3 Sudoeste 14 Sudoeste 0 -- -- 66
2020-05-27 20:00:00 -- 5 Oeste 20 Sudoeste 0 -- -- 61
2020-05-27 19:00:00 -- 10 Oeste 41 Sudeste 0 -- -- 51
2020-05-27 18:00:00 -- 27 Sudeste 45 Sudeste 0 -- -- 56
2020-05-27 17:00:00 -- 28 Sudeste 42 Sudeste 0 -- -- 51
2020-05-27 16:00:00 -- 32 Sudeste 49 Sudeste 0 -- -- 51
2020-05-27 15:00:00 -- 11 Oeste 26 Oeste 0 -- -- 41
2020-05-27 14:00:00 -- 10 Sudoeste 20 Sudoeste 0 -- -- 46
2020-05-27 13:00:00 -- 11 Sudoeste 19 Sudoeste 0 -- -- 49
2020-05-27 12:00:00 -- 8 Sudoeste 15 Sudoeste 0 -- -- 54
2020-05-27 11:00:00 -- 8 Sudoeste 14 Sudoeste 0 -- -- 61
2020-05-27 10:00:00 -- 3 Sudeste 4 Sudeste 0 -- -- 59
2020-05-27 09:00:00 -- 2 Nordeste 5 Norte 0 -- -- 68
2020-05-27 08:00:00 -- 3 Norte 9 Noroeste 0 -- -- 77
2020-05-27 07:00:00 -- 4 Norte 6 Noroeste 0 -- -- 83
2020-05-27 06:00:00 -- 3 Nordeste 8 Nordeste 0 -- -- 83
2020-05-27 05:00:00 -- 5 Nordeste 9 Nordeste 0 -- -- 84
2020-05-27 04:00:00 -- 4 Nordeste 7 Nordeste 0 -- -- 83
2020-05-27 03:00:00 -- 3 Norte 10 Oeste 0 -- -- 81
2020-05-27 02:00:00 -- 4 Noroeste 6 Noroeste 0 -- -- 81
2020-05-27 01:00:00 -- 2 Nordeste 5 Norte 0 -- -- 81
2020-05-27 00:00:00 -- 3 Norte 6 Noroeste 0 -- -- 78
2020-05-26 23:00:00 -- 4 Sudeste 8 Sudeste 0 -- -- 78
2020-05-26 22:00:00 -- 4 Sur 9 Sur 0 -- -- 74
2020-05-26 21:00:00 -- 3 Sudoeste 10 Sudoeste 0 -- -- 69
2020-05-26 20:00:00 -- 6 Sudoeste 12 Sudoeste 0 -- -- 64
2020-05-26 19:00:00 -- 6 Sur 11 Sur 0 -- -- 62
2020-05-26 18:00:00 -- 9 Sur 14 Sur 0 -- -- 58
2020-05-26 17:00:00 -- 9 Sudoeste 18 Sudoeste 0 -- -- 52
2020-05-26 16:00:00 -- 10 Sudoeste 19 Sudoeste 0 -- -- 52
2020-05-26 15:00:00 -- 10 Sudoeste 18 Sudoeste 0 -- -- 49
2020-05-26 14:00:00 -- 7 Sudoeste 16 Sudoeste 0 -- -- 45
2020-05-26 13:00:00 -- 9 Sur 15 Sur 0 -- -- 41
2020-05-26 12:00:00 -- 7 Sur 15 Sudoeste 0 -- -- 38
2020-05-26 11:00:00 -- 9 Sudoeste 19 Sudoeste 0 -- -- 46
2020-05-26 10:00:00 -- 4 Sur 6 Sur 0 -- -- 48
2020-05-26 09:00:00 -- 3 Sudeste 5 Sudeste 0 -- -- 55
2020-05-26 08:00:00 -- 0 Calma 5 Este 0 -- -- 66
2020-05-26 07:00:00 -- 2 Norte 6 Nordeste 0 -- -- 73
2020-05-26 06:00:00 -- 3 Este 6 Noroeste 0 -- -- 74
2020-05-26 05:00:00 -- 3 Norte 6 Norte 0 -- -- 72
2020-05-26 04:00:00 -- 4 Nordeste 8 Norte 0 -- -- 71
2020-05-26 03:00:00 -- 3 Nordeste 9 Nordeste 0 -- -- 70
2020-05-26 02:00:00 -- 2 Nordeste 6 Norte 0 -- -- 68
2020-05-26 01:00:00 -- 3 Nordeste 5 Este 0 -- -- 66
2020-05-26 00:00:00 -- 0 Calma 8 Oeste 0 -- -- 63
2020-05-25 23:00:00 -- 3 Sudoeste 6 Sudoeste 0 -- -- 58
2020-05-25 22:00:00 -- 4 Sudoeste 8 Sudoeste 0 -- -- 59
2020-05-25 21:00:00 -- 5 Sur 11 Sur 0 -- -- 58
2020-05-25 20:00:00 -- 8 Sur 18 Sur 0 -- -- 60
2020-05-25 19:00:00 -- 8 Sur 15 Sudoeste 0 -- -- 59
2020-05-25 18:00:00 -- 9 Sur 15 Sur 0 -- -- 57
2020-05-25 17:00:00 -- 7 Sur 17 Sur 0 -- -- 61
2020-05-25 16:00:00 -- 9 Sur 17 Sur 0 -- -- 61
2020-05-25 15:00:00 -- 10 Sur 17 Sudoeste 0 -- -- 61
2020-05-25 14:00:00 -- 9 Sur 19 Sudoeste 0 -- -- 58
2020-05-25 13:00:00 -- 10 Sudoeste 19 Sudoeste 0 -- -- 62
2020-05-25 12:00:00 -- 10 Sudoeste 18 Sudoeste 0 -- -- 61
2020-05-25 11:00:00 -- 8 Sudoeste 15 Sudoeste 0 -- -- 62
2020-05-25 10:00:00 -- 8 Sudoeste 17 Sudoeste 0 -- -- 66
2020-05-25 09:00:00 -- 3 Noroeste 6 Nordeste 0 -- -- 66
2020-05-25 08:00:00 -- 4 Nordeste 8 Nordeste 0 -- -- 82
2020-05-25 07:00:00 -- 5 Nordeste 8 Nordeste 0 -- -- 83
2020-05-25 06:00:00 -- 0 Calma 5 Norte 0 -- -- 83
2020-05-25 05:00:00 -- 3 Norte 9 Oeste 0 -- -- 81
2020-05-25 04:00:00 -- 5 Noroeste 8 Noroeste -- -- -- 82
2020-05-25 03:00:00 -- 4 Oeste 9 Sudoeste 0 -- -- 82
2020-05-25 02:00:00 -- 5 Sudoeste 10 Sur 0 -- -- 84
2020-05-25 01:00:00 -- 4 Sur 9 Sudoeste 0 -- -- 83
2020-05-25 00:00:00 -- 4 Sur 9 Sudeste 0 -- -- 81
2020-05-24 23:00:00 -- 3 Noroeste 19 Sudeste 0 -- -- 78
2020-05-24 22:00:00 -- 16 Sudeste 24 Sudeste 0 -- -- 80
2020-05-24 21:00:00 -- 13 Sudeste 19 Sudeste 0 -- -- 73
2020-05-24 20:00:00 -- 11 Sur 30 Sudeste 0 -- -- 63
2020-05-24 19:00:00 -- 17 Sur 30 Sudeste 0 -- -- 62
2020-05-24 18:00:00 -- 23 Sudeste 31 Sudeste 0 -- -- 64
2020-05-24 17:00:00 -- 10 Sur 16 Sur 0 -- -- 49
2020-05-24 16:00:00 -- 8 Sudoeste 18 Sudoeste 0 -- -- 53
2020-05-24 15:00:00 -- 9 Sudoeste 18 Oeste 0 -- -- 52
2020-05-24 14:00:00 -- 12 Sudoeste 21 Sudoeste 0 -- -- 57
2020-05-24 13:00:00 -- 10 Sudoeste 18 Sudoeste 0 -- -- 51
2020-05-24 12:00:00 -- 10 Sudoeste 17 Sudoeste 0 -- -- 51
2020-05-24 11:00:00 -- 5 Sudoeste 11 Sudoeste 0 -- -- 52
2020-05-24 10:00:00 -- 6 Sur 11 Sur 0 -- -- 44
2020-05-24 09:00:00 -- 0 Calma 6 Sur 0 -- -- 45
2020-05-24 08:00:00 -- 4 Nordeste 8 Nordeste 0 -- -- 58
2020-05-24 07:00:00 -- 0 Calma 6 Nordeste 0 -- -- 70
2020-05-24 06:00:00 -- 3 Nordeste 4 Nordeste 0 -- -- 71
2020-05-24 05:00:00 -- 2 Este 6 Sudeste 0 -- -- 73
2020-05-24 04:00:00 -- 3 Sudeste 6 Sudeste 0 -- -- 73
2020-05-24 03:00:00 -- 0 Calma 6 Norte 0 -- -- 72
2020-05-24 02:00:00 -- 2 Sur 3 Sudeste 0 -- -- 72
2020-05-24 01:00:00 -- 4 Sudeste 7 Sudeste 0 -- -- 72
2020-05-24 00:00:00 -- 2 Sudeste 4 Sudeste 0 -- -- 71
2020-05-23 23:00:00 -- 0 Calma 3 Sur 0 -- -- 64
2020-05-23 22:00:00 -- 2 Sudoeste 8 Oeste 0 -- -- 58
2020-05-23 21:00:00 -- 3 Sudoeste 9 Sudoeste 0 -- -- 53
2020-05-23 20:00:00 -- 5 Sudoeste 11 Sudoeste 0 -- -- 52
2020-05-23 19:00:00 -- 8 Sudoeste 13 Sudoeste 0 -- -- 51
2020-05-23 18:00:00 -- 8 Sudoeste 15 Sudoeste 0 -- -- 50
2020-05-23 17:00:00 -- 8 Sudoeste 19 Sur 0 -- -- 43
2020-05-23 16:00:00 -- 12 Sur 22 Sur 0 -- -- 43
2020-05-23 15:00:00 -- 13 Sur 22 Sur 0 -- -- 41
2020-05-23 14:00:00 -- 13 Sur 20 Sudoeste 0 -- -- 45
2020-05-23 13:00:00 -- 10 Sudoeste 18 Sudoeste 0 -- -- 34
2020-05-23 12:00:00 -- 12 Sudoeste 17 Sudoeste 0 -- -- 41
2020-05-23 11:00:00 -- 7 Sudoeste 12 Oeste 0 -- -- 39
2020-05-23 10:00:00 -- 3 Oeste 6 Noroeste 0 -- -- 33
2020-05-23 09:00:00 -- 0 Calma 5 Sudeste 0 -- -- 53
2020-05-23 08:00:00 -- 3 Noroeste 6 Noroeste 0 -- -- 65
2020-05-23 07:00:00 -- 0 Calma 5 Noroeste 0 -- -- 77
2020-05-23 06:00:00 -- 2 Nordeste 5 Noroeste 0 -- -- 75
2020-05-23 05:00:00 -- 0 Calma 5 Nordeste 0 -- -- 74
2020-05-23 04:00:00 -- 4 Nordeste 9 Noroeste 0 -- -- 77
2020-05-23 03:00:00 -- 3 Noroeste 6 Noroeste 0 -- -- 81
2020-05-23 02:00:00 -- 2 Sudeste 10 Sur 0 -- -- 78
2020-05-23 01:00:00 -- 2 Sur 7 Sur 0 -- -- 85
2020-05-23 00:00:00 -- 0 Calma 5 Nordeste 0 -- -- 85
2020-05-22 23:00:00 -- 2 Norte 14 Oeste 0 -- -- 81
2020-05-22 22:00:00 -- 10 Oeste 16 Oeste 0 -- -- 81
2020-05-22 21:00:00 -- 8 Noroeste 12 Oeste 0 -- -- 69
2020-05-22 20:00:00 -- 2 Sudoeste 11 Sudeste 0 -- -- 64
2020-05-22 19:00:00 -- 7 Sur 13 Sur 0 -- -- 65
2020-05-22 18:00:00 -- 6 Sudoeste 12 Sudoeste 0 -- -- 63
2020-05-22 17:00:00 -- 8 Sur 14 Sur 0 -- -- 63
2020-05-22 16:00:00 -- 7 Sur 14 Sur 0 -- -- 64
2020-05-22 15:00:00 -- 9 Sur 14 Sur 0 -- -- 60
2020-05-22 14:00:00 -- 7 Sudoeste 13 Sudoeste 0 -- -- 57
2020-05-22 13:00:00 -- 6 Sudoeste 12 Sudoeste 0 -- -- 49
2020-05-22 12:00:00 -- 6 Sudoeste 10 Sudoeste 0 -- -- 46
2020-05-22 11:00:00 -- 5 Sudoeste 9 Sur 0 -- -- 44
2020-05-22 10:00:00 -- 5 Sudoeste 7 Sudoeste 0 -- -- 44
2020-05-22 09:00:00 -- 0 Calma 4 Sudeste 0 -- -- 51
2020-05-22 08:00:00 -- 0 Calma 3 Este 0 -- -- 65
2020-05-22 07:00:00 -- 0 Calma 5 Norte 0 -- -- 73
2020-05-22 06:00:00 -- 3 Nordeste 4 Nordeste 0 -- -- 72
2020-05-22 05:00:00 -- 0 Calma 4 Nordeste 0 -- -- 73
2020-05-22 04:00:00 -- 0 Calma 4 Nordeste 0 -- -- 71
2020-05-22 03:00:00 -- 0 Calma 4 Nordeste 0 -- -- 72
2020-05-22 02:00:00 -- 0 Calma 4 Norte 0 -- -- 73
2020-05-22 01:00:00 -- 0 Calma 3 Nordeste 0 -- -- 76
2020-05-22 00:00:00 -- 3 Sudeste 4 Sudeste 0 -- -- 79
2020-05-21 23:00:00 -- 2 Norte 4 Norte 0 -- -- 75
2020-05-21 22:00:00 -- 0 Calma 4 Sur 0 -- -- 77
2020-05-21 21:00:00 -- 2 Sur 5 Sudeste 0 -- -- 73
2020-05-21 20:00:00 -- 4 Sur 7 Sur 0 -- -- 66
2020-05-21 19:00:00 -- 4 Sudoeste 10 Sudoeste 0 -- -- 64
2020-05-21 18:00:00 -- 4 Sur 12 Sur 0 -- -- 61
2020-05-21 17:00:00 -- 9 Sur 26 Sudeste 0 -- -- 68
2020-05-21 16:00:00 -- 17 Sudeste 33 Sudeste 0 -- -- 70
2020-05-21 15:00:00 -- 20 Sudeste 33 Sudeste 0 -- -- 67
2020-05-21 14:00:00 -- 21 Sudeste 32 Sudeste 0 -- -- 77
2020-05-21 13:00:00 -- 18 Sudeste 31 Sudeste 0 -- -- 76
2020-05-21 12:00:00 -- 8 Sudoeste 17 Oeste 0 -- -- 70
2020-05-21 11:00:00 -- 9 Sur 15 Sur 0 -- -- 62
2020-05-21 10:00:00 -- 4 Sudoeste 8 Oeste 0 -- -- 62
2020-05-21 09:00:00 -- 3 Nordeste 6 Oeste 0 -- -- 63
2020-05-21 08:00:00 -- 3 Sur 5 Sur 0 -- -- 72
2020-05-21 07:00:00 -- 2 Noroeste 4 Noroeste 0 -- -- 77
2020-05-21 06:00:00 -- 0 Calma 6 Sudeste 0 -- -- 76
2020-05-21 05:00:00 -- 0 Calma 4 Nordeste 0 -- -- 72
2020-05-21 04:00:00 -- 0 Calma 7 Nordeste 0 -- -- 70
2020-05-21 03:00:00 -- 0 Calma 6 Norte 0 -- -- 68
2020-05-21 02:00:00 -- 0 Calma 6 Este 0 -- -- 69
2020-05-21 01:00:00 -- 2 Noroeste 6 Oeste 0 -- -- 65
2020-05-21 00:00:00 -- 0 Calma 5 Nordeste 0 -- -- 64
2020-05-20 23:00:00 -- 0 Calma 5 Norte 0 -- -- 64
2020-05-20 22:00:00 -- 3 Sudoeste 8 Sudoeste 0 -- -- 63
2020-05-20 21:00:00 -- 2 Sur 8 Oeste 0 -- -- 53
2020-05-20 20:00:00 -- 5 Sudoeste 12 Sudoeste 0 -- -- 41
2020-05-20 19:00:00 -- 5 Sur 11 Sudoeste 0 -- -- 44
2020-05-20 18:00:00 -- 7 Sur 11 Sudoeste 0 -- -- 49
2020-05-20 17:00:00 -- 6 Sur 14 Sudoeste 0 -- -- 53
2020-05-20 16:00:00 -- 8 Sudoeste 18 Sudoeste 0 -- -- 47
2020-05-20 15:00:00 -- 9 Oeste 21 Oeste 0 -- -- 43
2020-05-20 14:00:00 -- 9 Oeste 23 Oeste 0 -- -- 34
2020-05-20 13:00:00 -- 10 Sudoeste 19 Sudoeste 0 -- -- 47
2020-05-20 12:00:00 -- 6 Sur 10 Sur 0 -- -- 37
2020-05-20 11:00:00 -- 5 Noroeste 19 Sudoeste 0 -- -- 41
2020-05-20 10:00:00 -- 3 Sudeste 12 Sur 0 -- -- 55
2020-05-20 09:00:00 -- 3 Sudoeste 6 Sur 0 -- -- 50
2020-05-20 08:00:00 -- 2 Sudeste 4 Oeste 0 -- -- 67
2020-05-20 07:00:00 -- 0 Calma 4 Noroeste 0 -- -- 75
2020-05-20 06:00:00 -- 2 Norte 4 Noroeste 0 -- -- 73
2020-05-20 05:00:00 -- 0 Calma 6 Nordeste 0 -- -- 72
2020-05-20 04:00:00 -- 4 Noroeste 8 Noroeste 0 -- -- 72
2020-05-20 03:00:00 -- 0 Calma 4 Este 0 -- -- 74
2020-05-20 02:00:00 -- 0 Calma 4 Nordeste 0 -- -- 73
2020-05-20 01:00:00 -- 3 Norte 8 Nordeste 0 -- -- 68
2020-05-20 00:00:00 -- 3 Norte 5 Norte 0 -- -- 77
2020-05-19 23:00:00 -- 2 Norte 6 Sudoeste 0 -- -- 78
2020-05-19 22:00:00 -- 3 Oeste 8 Noroeste 0 -- -- 74
2020-05-19 21:00:00 -- 8 Noroeste 18 Oeste 0 -- -- 68
2020-05-19 20:00:00 -- 8 Oeste 15 Oeste 0 -- -- 54
2020-05-19 19:00:00 -- 7 Sudoeste 17 Sudoeste 0 -- -- 52
2020-05-19 18:00:00 -- 8 Sudoeste 14 Sudoeste 0 -- -- 59
2020-05-19 17:00:00 -- 8 Sur 11 Sur 0 -- -- 70
2020-05-19 16:00:00 -- 8 Sur 13 Sur 0 -- -- 68
2020-05-19 15:00:00 -- 6 Sur 16 Sudoeste 0 -- -- 61
2020-05-19 14:00:00 -- 8 Sudoeste 16 Sudoeste 0 -- -- 49
2020-05-19 13:00:00 -- 7 Sudoeste 12 Sudoeste 0 -- -- 50
2020-05-19 12:00:00 -- 7 Sur 17 Sudoeste 0 -- -- 59
2020-05-19 11:00:00 -- 7 Sudoeste 14 Sudoeste 0 -- -- 56
2020-05-19 10:00:00 -- 0 Calma 7 Oeste 0 -- -- 46
2020-05-19 09:00:00 -- 2 Sudeste 4 Sudoeste 0 -- -- 57
2020-05-19 08:00:00 -- 0 Calma 7 Nordeste 0 -- -- 67
2020-05-19 07:00:00 -- 0 Calma 6 Norte 0 -- -- 74
2020-05-19 06:00:00 -- 0 Calma 4 Norte 0 -- -- 73
2020-05-19 05:00:00 -- 0 Calma 4 Este 0 -- -- 74
2020-05-19 04:00:00 -- 2 Nordeste 5 Norte 0 -- -- 72
2020-05-19 03:00:00 -- 2 Norte 15 Oeste 0 -- -- 69
2020-05-19 02:00:00 -- 6 Noroeste 14 Oeste 0 -- -- 73
2020-05-19 01:00:00 -- 3 Noroeste 8 Oeste 0 -- -- 72
2020-05-19 00:00:00 -- 3 Este 4 Este 0 -- -- 73
2020-05-18 23:00:00 -- 2 Noroeste 9 Oeste 0 -- -- 71
2020-05-18 22:00:00 -- 3 Oeste 7 Oeste 0 -- -- 70
2020-05-18 21:00:00 -- 4 Oeste 10 Oeste 0 -- -- 64
2020-05-18 20:00:00 -- 5 Sudoeste 13 Sudoeste 0 -- -- 64
2020-05-18 19:00:00 -- 6 Sudoeste 13 Sudoeste 0 -- -- 67
2020-05-18 18:00:00 -- 8 Sudoeste 13 Sudoeste 0 -- -- 67
2020-05-18 17:00:00 -- 7 Sur 13 Sudoeste 0 -- -- 68
2020-05-18 16:00:00 -- 7 Sudoeste 17 Oeste 0 -- -- 62
2020-05-18 15:00:00 -- 7 Sudoeste 14 Sudoeste 0 -- -- 59
2020-05-18 14:00:00 -- 7 Sudoeste 14 Sudoeste 0 -- -- 56
2020-05-18 13:00:00 -- 5 Sudoeste 13 Sudoeste 0 -- -- 58
2020-05-18 12:00:00 -- 8 Sudoeste 15 Sudoeste 0 -- -- 57
2020-05-18 11:00:00 -- 8 Sudoeste 17 Sudoeste 0 -- -- 61
2020-05-18 10:00:00 -- 6 Sudoeste 13 Sudoeste 0 -- -- 55
2020-05-18 09:00:00 -- 3 Sudeste 9 Noroeste 0 -- -- 65
2020-05-18 08:00:00 -- 3 Noroeste 15 Noroeste 0 -- -- 70
2020-05-18 07:00:00 -- 4 Oeste 8 Oeste 0 -- -- 83
2020-05-18 06:00:00 -- 0 Calma 4 Sudeste 0 -- -- 84
2020-05-18 05:00:00 -- 0 Calma 5 Sudeste 0 -- -- 82
2020-05-18 04:00:00 -- 0 Calma 5 Sudoeste 0 -- -- 83
2020-05-18 03:00:00 -- 0 Calma 4 Sudoeste 0 -- -- 82
2020-05-18 02:00:00 -- 2 Nordeste 6 Oeste 0 -- -- 80
2020-05-18 01:00:00 -- 0 Calma 5 Noroeste 0 -- -- 79
2020-05-18 00:00:00 -- 3 Sudoeste 5 Sudoeste 0 -- -- 77
2020-05-17 23:00:00 -- 3 Nordeste 8 Oeste 0 -- -- 76
2020-05-17 22:00:00 -- 3 Oeste 5 Oeste 0 -- -- 71
2020-05-17 21:00:00 -- 2 Nordeste 15 Oeste 0 -- -- 70
2020-05-17 20:00:00 -- 6 Oeste 14 Sudoeste 0 -- -- 64
2020-05-17 19:00:00 -- 6 Oeste 15 Oeste 0 -- -- 72
2020-05-17 18:00:00 -- 6 Sudoeste 13 Sudoeste 0 -- -- 69
2020-05-17 17:00:00 -- 6 Sudoeste 12 Sudoeste 0 -- -- 66
2020-05-17 16:00:00 -- 5 Sudoeste 13 Sudoeste 0 -- -- 63
2020-05-17 15:00:00 -- 5 Sur 13 Sudoeste 0 -- -- 57
2020-05-17 14:00:00 -- 5 Sudoeste 14 Sudeste 0 -- -- 59
2020-05-17 13:00:00 -- 12 Sudeste 15 Sudeste 0 -- -- 65
2020-05-17 12:00:00 -- 8 Sudoeste 15 Sudoeste 0 -- -- 58
2020-05-17 11:00:00 -- 7 Sur 12 Sur 0 -- -- 64
2020-05-17 10:00:00 -- 4 Sudeste 5 Sudeste 0 -- -- 70
2020-05-17 09:00:00 -- 0 Calma 4 Oeste 0 -- -- 77
2020-05-17 08:00:00 -- 2 Nordeste 7 Noroeste 0 -- -- 80
2020-05-17 07:00:00 -- 0 Calma 3 Noroeste 0 -- -- 82
2020-05-17 06:00:00 -- 2 Norte 6 Noroeste 0 -- -- 79
2020-05-17 05:00:00 -- 0 Calma 5 Noroeste 0 -- -- 80
2020-05-17 04:00:00 -- 3 Noroeste 5 Noroeste 0 -- -- 80
2020-05-17 03:00:00 -- 0 Calma 5 Nordeste 0 -- -- 81
2020-05-17 02:00:00 -- 2 Sudoeste 11 Noroeste 0 -- -- 76
2020-05-17 01:00:00 -- 2 Oeste 8 Sudoeste 0 -- -- 79
2020-05-17 00:00:00 -- 0 Calma 6 Nordeste 0 -- -- 78
2020-05-16 23:00:00 -- 3 Nordeste 6 Nordeste 0 -- -- 76
2020-05-16 22:00:00 -- 3 Sudeste 9 Sudoeste 0 -- -- 75
2020-05-16 21:00:00 -- 5 Oeste 14 Oeste 0 -- -- 68
2020-05-16 20:00:00 -- 5 Oeste 12 Oeste 0 -- -- 64
2020-05-16 19:00:00 -- 4 Noroeste 7 Sudoeste 0 -- -- 63
2020-05-16 18:00:00 -- 2 Sudoeste 14 Oeste 0 -- -- 61
2020-05-16 17:00:00 -- 6 Oeste 13 Oeste 0 -- -- 56
2020-05-16 16:00:00 -- 4 Sudeste 8 Sudoeste 0 -- -- 65
2020-05-16 15:00:00 -- 5 Sur 9 Nordeste 0 -- -- 59
2020-05-16 14:00:00 -- 0 Calma 8 Nordeste 0.2 -- -- 69
2020-05-16 13:00:00 -- 3 Sudeste 8 Sur 0.2 -- -- 65
2020-05-16 12:00:00 -- 5 Sur 9 Sudeste 0 -- -- 59
2020-05-16 11:00:00 -- 5 Sur 7 Sur 0 -- -- 51
2020-05-16 10:00:00 -- 3 Sudeste 5 Sudoeste 0 -- -- 61
2020-05-16 09:00:00 -- 0 Calma 4 Sudeste 0 -- -- 73
2020-05-16 08:00:00 -- 3 Nordeste 5 Nordeste 0 -- -- 74
2020-05-16 07:00:00 -- 3 Nordeste 5 Norte 0 -- -- 76
2020-05-16 06:00:00 -- 3 Nordeste 6 Nordeste 0 -- -- 78
2020-05-16 05:00:00 -- 2 Sudeste 5 Sur 0 -- -- 81
2020-05-16 04:00:00 -- 0 Calma 4 Sudeste 0 -- -- 80
2020-05-16 03:00:00 -- 0 Calma 6 Sudeste 0 -- -- 80
2020-05-16 02:00:00 -- 0 Calma 5 Nordeste 0 -- -- 78
2020-05-16 01:00:00 -- 2 Sur 6 Sudoeste 0 -- -- 75
2020-05-16 00:00:00 -- 2 Nordeste 7 Norte 0 -- -- 78
2020-05-15 23:00:00 -- 4 Noroeste 10 Oeste 0 -- -- 76
2020-05-15 22:00:00 -- 3 Sudoeste 6 Sur 0 -- -- 75
2020-05-15 21:00:00 -- 3 Sudoeste 8 Sudoeste 0 -- -- 73
2020-05-15 20:00:00 -- 5 Sur 8 Sur 0 -- -- 69
2020-05-15 19:00:00 -- 6 Sur 20 Sudeste 0 -- -- 70
2020-05-15 18:00:00 -- 15 Sudeste 22 Sudeste 0 -- -- 75
2020-05-15 17:00:00 -- 12 Sudeste 18 Sudeste 0 -- -- 72
2020-05-15 16:00:00 -- 11 Sudeste 18 Sudeste 0 -- -- 73
2020-05-15 15:00:00 -- 15 Sudeste 20 Sudeste 0 -- -- 76
2020-05-15 14:00:00 -- 13 Sudeste 19 Sudeste 0 -- -- 72
2020-05-15 13:00:00 -- 16 Sudeste 21 Sudeste 0 -- -- 70
2020-05-15 12:00:00 -- 13 Sudeste 17 Sudeste 0 -- -- 69
2020-05-15 11:00:00 -- 9 Sur 12 Sur 0 -- -- 55
2020-05-15 10:00:00 -- 4 Sur 9 Norte 0 -- -- 55
2020-05-15 09:00:00 -- 2 Norte 6 Nordeste 0 -- -- 69
2020-05-15 08:00:00 -- 0 Calma 5 Sudoeste 0 -- -- 72
2020-05-15 07:00:00 -- 2 Norte 5 Nordeste 0 -- -- 70
2020-05-15 06:00:00 -- 2 Oeste 12 Oeste 0 -- -- 66
2020-05-15 05:00:00 -- 6 Oeste 15 Noroeste 0 -- -- 61
2020-05-15 04:00:00 -- 4 Noroeste 6 Noroeste 0 -- -- 68
2020-05-15 03:00:00 -- 0 Calma 6 Este 0 -- -- 73
2020-05-15 02:00:00 -- 3 Nordeste 5 Nordeste 0 -- -- 73
2020-05-15 01:00:00 -- 0 Calma 6 Oeste 0 -- -- 71
2020-05-15 00:00:00 -- 4 Oeste 12 Noroeste 0 -- -- 63
2020-05-14 23:00:00 -- 8 Oeste 14 Oeste 0 -- -- 63
2020-05-14 22:00:00 -- 4 Oeste 13 Oeste 0 -- -- 59
2020-05-14 21:00:00 -- 8 Oeste 13 Oeste 0 -- -- 51
2020-05-14 20:00:00 -- 10 Oeste 20 Oeste 0 -- -- 50
2020-05-14 19:00:00 -- 9 Oeste 27 Sudoeste 0 -- -- 52
2020-05-14 18:00:00 -- 12 Oeste 33 Oeste 0 -- -- 48
2020-05-14 17:00:00 -- 10 Oeste 31 Oeste 0 -- -- 45
2020-05-14 16:00:00 -- 10 Sudoeste 28 Sudoeste 0 -- -- 50
2020-05-14 15:00:00 -- 14 Oeste 34 Oeste 0 -- -- 47
2020-05-14 14:00:00 -- 16 Oeste 34 Oeste 0 -- -- 46
2020-05-14 13:00:00 -- 19 Oeste 37 Oeste 0 -- -- 45
2020-05-14 12:00:00 -- 14 Oeste 32 Oeste 0 -- -- 52
2020-05-14 11:00:00 -- 16 Oeste 32 Oeste 0 -- -- 52
2020-05-14 10:00:00 -- 17 Oeste 33 Noroeste 0 -- -- 54
2020-05-14 09:00:00 -- 9 Oeste 25 Sudoeste 0 -- -- 62
2020-05-14 08:00:00 -- 13 Oeste 32 Oeste 0 -- -- 73
2020-05-14 07:00:00 -- 9 Oeste 27 Oeste 0 -- -- 76
2020-05-14 06:00:00 -- 19 Oeste 35 Noroeste 0 -- -- 80
2020-05-14 05:00:00 -- 11 Noroeste 19 Oeste 0 -- -- 82
2020-05-14 04:00:00 -- 8 Oeste 20 Oeste 0 -- -- 80
2020-05-14 03:00:00 -- 11 Oeste 23 Oeste 0 -- -- 78
2020-05-14 02:00:00 -- 12 Oeste 26 Oeste 0 -- -- 77
2020-05-14 01:00:00 -- 13 Oeste 32 Oeste 0 -- -- 81
2020-05-14 00:00:00 -- 16 Oeste 32 Sudoeste 0 -- -- 80
2020-05-13 23:00:00 -- 3 Noroeste 34 Oeste 0 -- -- 76
2020-05-13 22:00:00 -- 24 Oeste 52 Oeste 0 -- -- 75
2020-05-13 21:00:00 -- 22 Oeste 38 Oeste 0 -- -- 65
2020-05-13 20:00:00 -- 14 Oeste 26 Oeste 0 -- -- 57
2020-05-13 19:00:00 -- 4 Sudoeste 15 Oeste 0 -- -- 56
2020-05-13 18:00:00 -- 9 Sudoeste 23 Oeste 0 -- -- 56
2020-05-13 17:00:00 -- 13 Oeste 26 Oeste 0 -- -- 39
2020-05-13 16:00:00 -- 12 Sudoeste 21 Sudoeste 0 -- -- 54
2020-05-13 15:00:00 -- 12 Oeste 22 Oeste 0 -- -- 40
2020-05-13 14:00:00 -- 10 Oeste 27 Oeste 0 -- -- 46
2020-05-13 13:00:00 -- 9 Sudoeste 23 Oeste 0 -- -- 51
2020-05-13 12:00:00 -- 9 Sudoeste 19 Oeste 0 -- -- 50
2020-05-13 11:00:00 -- 9 Sudoeste 15 Sudoeste 0 -- -- 53
2020-05-13 10:00:00 -- 10 Oeste 22 Noroeste 0 -- -- 54
2020-05-13 09:00:00 -- 5 Oeste 12 Oeste 0 -- -- 62
2020-05-13 08:00:00 -- 0 Calma 6 Nordeste 0 -- -- 77
2020-05-13 07:00:00 -- 0 Calma 10 Oeste 0 -- -- 82
2020-05-13 06:00:00 -- 5 Oeste 10 Oeste 0 -- -- 82
2020-05-13 05:00:00 -- 4 Noroeste 14 Noroeste 0 -- -- 79
2020-05-13 04:00:00 -- 9 Noroeste 21 Noroeste 0 -- -- 75
2020-05-13 03:00:00 -- 10 Noroeste 16 Noroeste 0 -- -- 83
2020-05-13 02:00:00 -- 2 Noroeste 6 Noroeste 0 -- -- 83
2020-05-13 01:00:00 -- 0 Calma 8 Este 0 -- -- 82
2020-05-13 00:00:00 -- 3 Este 14 Oeste 0 -- -- 78
2020-05-12 23:00:00 -- 5 Oeste 16 Oeste 0 -- -- 75
2020-05-12 22:00:00 -- 8 Oeste 16 Sudoeste 0 -- -- 75
2020-05-12 21:00:00 -- 9 Oeste 19 Noroeste 0 -- -- 71
2020-05-12 20:00:00 -- 12 Oeste 26 Sudoeste 0 -- -- 66
2020-05-12 19:00:00 -- 15 Oeste 33 Oeste 0 -- -- 68
2020-05-12 18:00:00 -- 15 Oeste 31 Oeste 0 -- -- 68
2020-05-12 17:00:00 -- 13 Oeste 34 Oeste 0 -- -- 68
2020-05-12 16:00:00 -- 18 Oeste 35 Oeste 0 -- -- 66
2020-05-12 15:00:00 -- 18 Oeste 30 Oeste 0 -- -- 65
2020-05-12 14:00:00 -- 9 Noroeste 36 Noroeste 0.2 -- -- 78
2020-05-12 13:00:00 -- 13 Norte 28 Norte 0.8 -- -- 82
2020-05-12 12:00:00 -- 9 Noroeste 15 Noroeste 4 -- -- 91
2020-05-12 11:00:00 -- 8 Noroeste 16 Oeste 3.6 -- -- 91
2020-05-12 10:00:00 -- 10 Noroeste 28 Oeste 3.8 -- -- 90
2020-05-12 09:00:00 -- 11 Oeste 24 Noroeste 0.2 -- -- 73
2020-05-12 08:00:00 -- 14 Noroeste 31 Oeste 0.4 -- -- 80
2020-05-12 07:00:00 -- 13 Noroeste 35 Norte 0 -- -- 61
2020-05-12 06:00:00 -- 22 Noroeste 32 Noroeste 0 -- -- 75
2020-05-12 05:00:00 -- 13 Oeste 30 Oeste 0.2 -- -- 73
2020-05-12 04:00:00 -- 9 Oeste 25 Oeste 0 -- -- 70
2020-05-12 03:00:00 -- 2 Sur 12 Este 0 -- -- 72
2020-05-12 02:00:00 -- 8 Noroeste 16 Sudoeste 0 -- -- 64
2020-05-12 01:00:00 -- 8 Oeste 26 Norte 0 -- -- 59
2020-05-12 00:00:00 -- 10 Norte 22 Norte 0 -- -- 56
2020-05-11 23:00:00 -- 5 Norte 12 Este 0 -- -- 65
2020-05-11 22:00:00 -- 4 Oeste 26 Oeste 0 -- -- 64
2020-05-11 21:00:00 -- 15 Oeste 37 Oeste 0 -- -- 62
2020-05-11 20:00:00 -- 19 Oeste 43 Oeste 0 -- -- 55
2020-05-11 19:00:00 -- 19 Oeste 41 Oeste 0 -- -- 54
2020-05-11 18:00:00 -- 21 Oeste 41 Oeste 0 -- -- 51
2020-05-11 17:00:00 -- 23 Oeste 45 Oeste 0 -- -- 50
2020-05-11 16:00:00 -- 20 Oeste 49 Oeste 0 -- -- 52
2020-05-11 15:00:00 -- 26 Oeste 44 Oeste 0 -- -- 50
2020-05-11 14:00:00 -- 24 Oeste 46 Oeste 0 -- -- 55
2020-05-11 13:00:00 -- 22 Oeste 44 Sudoeste 0 -- -- 59
2020-05-11 12:00:00 -- 21 Oeste 40 Oeste 0 -- -- 65
2020-05-11 11:00:00 -- 17 Oeste 42 Oeste 0 -- -- 67
2020-05-11 10:00:00 -- 19 Oeste 35 Oeste 0 -- -- 68
2020-05-11 09:00:00 -- 14 Oeste 33 Oeste 0 -- -- 59
2020-05-11 08:00:00 -- 10 Oeste 20 Oeste 0 -- -- 65
2020-05-11 07:00:00 -- 12 Oeste 25 Oeste 0 -- -- 67
2020-05-11 06:00:00 -- 17 Oeste 28 Oeste 0 -- -- 65
2020-05-11 05:00:00 -- 17 Oeste 29 Oeste 0 -- -- 67
2020-05-11 04:00:00 -- 10 Noroeste 30 Oeste 0 -- -- 70
2020-05-11 03:00:00 -- 17 Oeste 36 Oeste 0 -- -- 75
2020-05-11 02:00:00 -- 20 Oeste 40 Oeste 0 -- -- 79
2020-05-11 01:00:00 -- 25 Oeste 42 Oeste 0 -- -- 74
2020-05-11 00:00:00 -- 27 Oeste 46 Oeste 0 -- -- 71
2020-05-10 23:00:00 -- 24 Oeste 44 Oeste 0 -- -- 67
2020-05-10 22:00:00 -- 22 Oeste 43 Oeste 0 -- -- 66
2020-05-10 21:00:00 -- 21 Oeste 45 Oeste 0 -- -- 64
2020-05-10 20:00:00 -- 20 Oeste 36 Oeste 0 -- -- 66
2020-05-10 19:00:00 -- 19 Oeste 41 Oeste 0 -- -- 65
2020-05-10 18:00:00 -- 21 Oeste 42 Oeste 0 -- -- 62
2020-05-10 17:00:00 -- 22 Oeste 42 Oeste 0 -- -- 63
2020-05-10 16:00:00 -- 23 Oeste 42 Oeste 0 -- -- 61
2020-05-10 15:00:00 -- 24 Oeste 45 Oeste 0 -- -- 66
2020-05-10 14:00:00 -- 18 Oeste 37 Oeste 0 -- -- 62
2020-05-10 13:00:00 -- 13 Oeste 39 Oeste 0 -- -- 58
2020-05-10 12:00:00 -- 21 Oeste 42 Oeste 0 -- -- 56
2020-05-10 11:00:00 -- 23 Oeste 41 Oeste 0 -- -- 58
2020-05-10 10:00:00 -- 21 Oeste 38 Oeste 0 -- -- 58
2020-05-10 09:00:00 -- 14 Oeste 27 Oeste 0 -- -- 61
2020-05-10 08:00:00 -- 14 Oeste 30 Oeste 0 -- -- 72
2020-05-10 07:00:00 -- 17 Oeste 40 Oeste 0 -- -- 75
2020-05-10 06:00:00 -- 22 Oeste 38 Oeste 0 -- -- 71
2020-05-10 05:00:00 -- 7 Noroeste 27 Oeste 0 -- -- 76
2020-05-10 04:00:00 -- 14 Noroeste 32 Oeste 0 -- -- 78
2020-05-10 03:00:00 -- 15 Oeste 29 Oeste 0 -- -- 82
2020-05-10 02:00:00 -- 21 Oeste 41 Oeste 0 -- -- 83
2020-05-10 01:00:00 -- 17 Oeste 32 Oeste 0 -- -- 77
2020-05-10 00:00:00 -- 18 Oeste 38 Oeste 0 -- -- 72
2020-05-09 23:00:00 -- 17 Oeste 33 Oeste 0 -- -- 72
2020-05-09 22:00:00 -- 19 Oeste 40 Oeste 0 -- -- 68
2020-05-09 21:00:00 -- 19 Oeste 41 Oeste 0 -- -- 62
2020-05-09 20:00:00 -- 23 Oeste 38 Oeste 0 -- -- 59
2020-05-09 19:00:00 -- 15 Oeste 38 Oeste 0 -- -- 60
2020-05-09 18:00:00 -- 16 Oeste 30 Oeste 0 -- -- 58
2020-05-09 17:00:00 -- 11 Oeste 32 Oeste 0 -- -- 56
2020-05-09 16:00:00 -- 17 Oeste 32 Oeste 0 -- -- 56
2020-05-09 15:00:00 -- 17 Oeste 40 Oeste 0 -- -- 53
2020-05-09 14:00:00 -- 19 Oeste 36 Sudoeste 0 -- -- 54
2020-05-09 13:00:00 -- 17 Oeste 32 Oeste 0 -- -- 54
2020-05-09 12:00:00 -- 12 Oeste 32 Oeste 0 -- -- 61
2020-05-09 11:00:00 -- 16 Oeste 35 Oeste 0 -- -- 70
2020-05-09 10:00:00 -- 11 Oeste 24 Oeste 0 -- -- 66
2020-05-09 09:00:00 -- 6 Sudoeste 12 Sudoeste 0 -- -- 68
2020-05-09 08:00:00 -- 5 Noroeste 16 Noroeste 0 -- -- 74
2020-05-09 07:00:00 -- 12 Noroeste 19 Oeste 0 -- -- 79
2020-05-09 06:00:00 -- 2 Norte 3 Norte 0 -- -- 82
2020-05-09 05:00:00 -- 2 Este 10 Noroeste 0 -- -- 80
2020-05-09 04:00:00 -- 5 Oeste 13 Oeste 0 -- -- 77
2020-05-09 03:00:00 -- 7 Noroeste 13 Noroeste 0 -- -- 76
2020-05-09 02:00:00 -- 8 Noroeste 12 Noroeste 0 -- -- 76
2020-05-09 01:00:00 -- 3 Norte 8 Este 0 -- -- 76
2020-05-09 00:00:00 -- 5 Este 8 Este 0 -- -- 81
2020-05-08 23:00:00 -- 3 Este 7 Sudeste 0 -- -- 81
2020-05-08 22:00:00 -- 3 Oeste 11 Noroeste 0 -- -- 78
2020-05-08 21:00:00 -- 5 Noroeste 10 Oeste 0 -- -- 74
2020-05-08 20:00:00 -- 4 Sudoeste 13 Sudoeste 0 -- -- 77
2020-05-08 19:00:00 -- 7 Sudoeste 14 Sudoeste 0 -- -- 70
2020-05-08 18:00:00 -- 5 Sudoeste 12 Sudoeste 0 -- -- 69
2020-05-08 17:00:00 -- 6 Sur 14 Sudeste 0 -- -- 71
2020-05-08 16:00:00 -- 12 Sudeste 19 Sudeste 0 -- -- 72
2020-05-08 15:00:00 -- 14 Sudeste 20 Sudeste 0 -- -- 77
2020-05-08 14:00:00 -- 12 Sudeste 19 Sudeste 0 -- -- 70
2020-05-08 13:00:00 -- 10 Sur 14 Sur 0 -- -- 68
2020-05-08 12:00:00 -- 10 Sudeste 15 Sur 0 -- -- 68
2020-05-08 11:00:00 -- 6 Sudoeste 11 Sudoeste 0 -- -- 65
2020-05-08 10:00:00 -- 4 Sur 6 Sur 0 -- -- 68
2020-05-08 09:00:00 -- 2 Este 6 Sur 0 -- -- 67
2020-05-08 08:00:00 -- 0 Calma 4 Nordeste 0 -- -- 74
2020-05-08 07:00:00 -- 4 Nordeste 7 Norte 0 -- -- 74
2020-05-08 06:00:00 -- 2 Este 6 Oeste 0 -- -- 78
2020-05-08 05:00:00 -- 2 Noroeste 4 Noroeste 0 -- -- 77
2020-05-08 04:00:00 -- 0 Calma 6 Nordeste 0 -- -- 75
2020-05-08 03:00:00 -- 6 Nordeste 9 Nordeste 0 -- -- 71
2020-05-08 02:00:00 -- 5 Nordeste 9 Nordeste 0 -- -- 76
2020-05-08 01:00:00 -- 4 Norte 10 Oeste 0 -- -- 81
2020-05-08 00:00:00 -- 3 Nordeste 4 Este 0 -- -- 79
2020-05-07 23:00:00 -- 2 Nordeste 8 Este 0 -- -- 79
2020-05-07 22:00:00 -- 4 Nordeste 8 Nordeste 0 -- -- 74
2020-05-07 21:00:00 -- 2 Oeste 13 Sudoeste 0 -- -- 68
2020-05-07 20:00:00 -- 8 Oeste 15 Oeste 0 -- -- 61
2020-05-07 19:00:00 -- 6 Oeste 18 Sudoeste 0 -- -- 53
2020-05-07 18:00:00 -- 10 Oeste 30 Oeste 0 -- -- 58
2020-05-07 17:00:00 -- 14 Oeste 28 Oeste 0 -- -- 65
2020-05-07 16:00:00 -- 14 Oeste 26 Oeste 0 -- -- 62
2020-05-07 15:00:00 -- 10 Sudoeste 31 Oeste 0 -- -- 60
2020-05-07 14:00:00 -- 17 Oeste 30 Oeste 0 -- -- 67
2020-05-07 13:00:00 -- 9 Oeste 28 Oeste 0 -- -- 65
2020-05-07 12:00:00 -- 12 Oeste 27 Oeste 0 -- -- 70
2020-05-07 11:00:00 -- 7 Sudoeste 15 Sudoeste 0 -- -- 72
2020-05-07 10:00:00 -- 5 Sudoeste 10 Sudoeste 0 -- -- 79
2020-05-07 09:00:00 -- 4 Sudeste 8 Noroeste 0 -- -- 84
2020-05-07 08:00:00 -- 2 Sudoeste 5 Oeste 0 -- -- 89
2020-05-07 07:00:00 -- 0 Calma 6 Norte 0 -- -- 89
2020-05-07 06:00:00 -- 0 Calma 9 Sudeste 0 -- -- 89
2020-05-07 05:00:00 -- 6 Sudeste 10 Sudeste 0 -- -- 89
2020-05-07 04:00:00 -- 6 Noroeste 13 Oeste 0 -- -- 89
2020-05-07 03:00:00 -- 6 Noroeste 28 Sudeste 0 -- -- 89
2020-05-07 02:00:00 -- 8 Sudeste 23 Sudeste 0 -- -- 84
2020-05-07 01:00:00 -- 4 Sur 6 Norte 0 -- -- 78
2020-05-07 00:00:00 -- 0 Calma 7 Oeste 0 -- -- 75
2020-05-06 23:00:00 -- 0 Calma 5 Oeste 0 -- -- 73
2020-05-06 22:00:00 -- 2 Noroeste 6 Noroeste 0 -- -- 70
2020-05-06 21:00:00 -- 5 Oeste 13 Noroeste 0 -- -- 69
2020-05-06 20:00:00 -- 7 Oeste 14 Sudoeste 0 -- -- 70
2020-05-06 19:00:00 -- 5 Oeste 12 Oeste 0 -- -- 68
2020-05-06 18:00:00 -- 5 Sudoeste 14 Sudoeste 0 -- -- 65
2020-05-06 17:00:00 -- 8 Sudoeste 17 Sudoeste 0 -- -- 68
2020-05-06 16:00:00 -- 7 Sur 15 Sudoeste 0 -- -- 67
2020-05-06 15:00:00 -- 10 Sur 22 Sur 0 -- -- 71
2020-05-06 14:00:00 -- 13 Sur 28 Sudeste 0 -- -- 75
2020-05-06 13:00:00 -- 14 Sudeste 18 Sudeste 0 -- -- 69
2020-05-06 12:00:00 -- 7 Sudoeste 13 Sur 0 -- -- 53
2020-05-06 11:00:00 -- 7 Sur 13 Sudoeste 0 -- -- 66
2020-05-06 10:00:00 -- 8 Sudoeste 12 Sudoeste 0 -- -- 72
2020-05-06 09:00:00 -- 0 Calma 3 Este 0 -- -- 80
2020-05-06 08:00:00 -- 0 Calma 3 Sudeste 0 -- -- 90
2020-05-06 07:00:00 -- 0 Calma 9 Oeste 0 -- -- 89
2020-05-06 06:00:00 -- 4 Noroeste 7 Noroeste 0 -- -- 89
2020-05-06 05:00:00 -- 2 Sudoeste 16 Sudeste 0 -- -- 88
2020-05-06 04:00:00 -- 4 Sudeste 7 Sudeste 0 -- -- 87
2020-05-06 03:00:00 -- 0 Calma 6 Oeste 0 -- -- 87
2020-05-06 02:00:00 -- 3 Noroeste 6 Noroeste 0 -- -- 85
2020-05-06 01:00:00 -- 2 Este 6 Nordeste 0 -- -- 85
2020-05-06 00:00:00 -- 0 Calma 6 Oeste 0 -- -- 84
2020-05-05 23:00:00 -- 3 Oeste 10 Oeste 0 -- -- 81
2020-05-05 22:00:00 -- 4 Noroeste 12 Noroeste 0 -- -- 78
2020-05-05 21:00:00 -- 6 Oeste 15 Oeste 0 -- -- 72
2020-05-05 20:00:00 -- 8 Oeste 23 Oeste 0 -- -- 63
2020-05-05 19:00:00 -- 10 Oeste 23 Oeste 0 -- -- 55
2020-05-05 18:00:00 -- 11 Oeste 21 Oeste 0 -- -- 57
2020-05-05 17:00:00 -- 10 Oeste 21 Oeste 0 -- -- 51
2020-05-05 16:00:00 -- 9 Sudoeste 15 Sudoeste 0 -- -- 60
2020-05-05 15:00:00 -- 9 Sudoeste 19 Sudoeste 0 -- -- 63
2020-05-05 14:00:00 -- 9 Sudoeste 17 Sudoeste 0 -- -- 60
2020-05-05 13:00:00 -- 9 Sudoeste 17 Sudoeste 0 -- -- 50
2020-05-05 12:00:00 -- 5 Sur 13 Sudoeste 0 -- -- 58
2020-05-05 11:00:00 -- 9 Sudoeste 15 Sudoeste 0 -- -- 62
2020-05-05 10:00:00 -- 5 Sur 13 Sur 0 -- -- 69
2020-05-05 09:00:00 -- 2 Sur 6 Sur 0 -- -- 68
2020-05-05 08:00:00 -- 2 Nordeste 5 Norte 0 -- -- 83
2020-05-05 07:00:00 -- 2 Norte 6 Oeste 0 -- -- 84
2020-05-05 06:00:00 -- 5 Noroeste 14 Sudoeste 0 -- -- 79
2020-05-05 05:00:00 -- 5 Sudoeste 11 Sudoeste 0 -- -- 80
2020-05-05 04:00:00 -- 2 Nordeste 5 Nordeste 0 -- -- 74
2020-05-05 03:00:00 -- 2 Nordeste 8 Este 0 -- -- 74
2020-05-05 02:00:00 -- 2 Norte 6 Norte 0 -- -- 73
2020-05-05 01:00:00 -- 4 Sudoeste 9 Sur 0 -- -- 71
2020-05-05 00:00:00 -- 2 Norte 11 Nordeste 0 -- -- 68
2020-05-04 23:00:00 -- 3 Sudeste 11 Noroeste 0 -- -- 71
2020-05-04 22:00:00 -- 6 Noroeste 18 Oeste 0 -- -- 63
2020-05-04 21:00:00 -- 12 Oeste 21 Oeste 0 -- -- 61
2020-05-04 20:00:00 -- 9 Oeste 32 Oeste 0 -- -- 51
2020-05-04 19:00:00 -- 18 Oeste 33 Oeste 0 -- -- 56
2020-05-04 18:00:00 -- 13 Oeste 32 Oeste 0 -- -- 49
2020-05-04 17:00:00 -- 14 Oeste 30 Oeste 0 -- -- 47
2020-05-04 16:00:00 -- 18 Oeste 33 Oeste 0 -- -- 48
2020-05-04 15:00:00 -- 13 Oeste 27 Oeste 0 -- -- 50
2020-05-04 14:00:00 -- 6 Sudoeste 18 Oeste 0 -- -- 52
2020-05-04 13:00:00 -- 8 Oeste 22 Sudoeste 0 -- -- 47
2020-05-04 12:00:00 -- 7 Sudoeste 10 Sudoeste 0 -- -- 41
2020-05-04 11:00:00 -- 4 Sur 12 Oeste 0 -- -- 57
2020-05-04 10:00:00 -- 9 Oeste 16 Oeste 0 -- -- 53
2020-05-04 09:00:00 -- 3 Sur 6 Noroeste 0 -- -- 65
2020-05-04 08:00:00 -- 3 Noroeste 9 Oeste 0 -- -- 69
2020-05-04 07:00:00 -- 4 Norte 7 Noroeste 0 -- -- 72
2020-05-04 06:00:00 -- 0 Calma 5 Noroeste 0 -- -- 78
2020-05-04 05:00:00 -- 2 Nordeste 8 Norte 0 -- -- 74
2020-05-04 04:00:00 -- 5 Nordeste 10 Oeste 0 -- -- 75
2020-05-04 03:00:00 -- 4 Noroeste 6 Noroeste 0 -- -- 72
2020-05-04 02:00:00 -- 6 Sur 12 Sudeste 0 -- -- 73
2020-05-04 01:00:00 -- 0 Calma 3 Noroeste 0 -- -- 75
2020-05-04 00:00:00 -- 0 Calma 5 Norte 0 -- -- 73
2020-05-03 23:00:00 -- 2 Sudeste 8 Sudeste 0 -- -- 73
2020-05-03 22:00:00 -- 8 Noroeste 12 Noroeste 0 -- -- 62
2020-05-03 21:00:00 -- 6 Oeste 10 Oeste 0 -- -- 67
2020-05-03 20:00:00 -- 4 Oeste 9 Oeste 0.2 -- -- 62
2020-05-03 19:00:00 -- 3 Sudoeste 14 Sur 0 -- -- 66
2020-05-03 18:00:00 -- 8 Sudoeste 15 Sur 0 -- -- 67
2020-05-03 17:00:00 -- 9 Sudoeste 21 Oeste 0 -- -- 60
2020-05-03 16:00:00 -- 9 Sudoeste 32 Sudeste 0 -- -- 60
2020-05-03 15:00:00 -- 14 Sur 24 Sur 0 -- -- 64
2020-05-03 14:00:00 -- 8 Sur 14 Sudoeste 0 -- -- 59
2020-05-03 13:00:00 -- 7 Sudoeste 18 Sur 0 -- -- 54
2020-05-03 12:00:00 -- 10 Sur 18 Sur 0 -- -- 60
2020-05-03 11:00:00 -- 12 Sur 18 Sudeste 0 -- -- 70
2020-05-03 10:00:00 -- 5 Sur 9 Sur 0 -- -- 68
2020-05-03 09:00:00 -- 0 Calma 5 Norte 0 -- -- 65
2020-05-03 08:00:00 -- 4 Noroeste 5 Norte 0 -- -- 78
2020-05-03 07:00:00 -- 0 Calma 3 Noroeste 0 -- -- 81
2020-05-03 06:00:00 -- 0 Calma 4 Noroeste 0 -- -- 81
2020-05-03 05:00:00 -- 2 Norte 4 Noroeste 0 -- -- 79
2020-05-03 04:00:00 -- 0 Calma 4 Sudeste 0 -- -- 81
2020-05-03 03:00:00 -- 0 Calma 3 Este 0 -- -- 82
2020-05-03 02:00:00 -- 2 Norte 4 Norte 0 -- -- 81
2020-05-03 01:00:00 -- 0 Calma 4 Sur 0 -- -- 79
2020-05-03 00:00:00 -- 3 Sudoeste 5 Sudoeste 0 -- -- 77
2020-05-02 23:00:00 -- 0 Calma 4 Nordeste 0 -- -- 74
2020-05-02 22:00:00 -- 4 Nordeste 6 Nordeste 0 -- -- 75
2020-05-02 21:00:00 -- 2 Sudoeste 11 Sudoeste 0 -- -- 75
2020-05-02 20:00:00 -- 9 Sudoeste 12 Sudoeste 0 -- -- 67
2020-05-02 19:00:00 -- 7 Sudoeste 12 Sudoeste 0 -- -- 60
2020-05-02 18:00:00 -- 4 Sudoeste 12 Sur 0 -- -- 65
2020-05-02 17:00:00 -- 7 Sur 12 Sur 0 -- -- 53
2020-05-02 16:00:00 -- 5 Sudoeste 10 Sur 0 -- -- 62
2020-05-02 15:00:00 -- 6 Sur 11 Sudeste 0 -- -- 64
2020-05-02 14:00:00 -- 9 Sudeste 13 Sudeste 0 -- -- 69
2020-05-02 13:00:00 -- 8 Sur 13 Sur 0 -- -- 67
2020-05-02 12:00:00 -- 5 Sur 8 Sur 0 -- -- 62
2020-05-02 11:00:00 -- 4 Sudoeste 9 Sur 0 -- -- 63
2020-05-02 10:00:00 -- 3 Sudoeste 6 Sudoeste 0 -- -- 65
2020-05-02 09:00:00 -- 3 Sudoeste 5 Sudoeste 0 -- -- 81
2020-05-02 08:00:00 -- 2 Norte 4 Norte 0 -- -- 92
2020-05-02 07:00:00 -- 0 Calma 6 Noroeste 0 -- -- 92
2020-05-02 06:00:00 -- 0 Calma 9 Sudeste 0 -- -- 91
2020-05-02 05:00:00 -- 4 Sudeste 16 Sur 0 -- -- 91
2020-05-02 04:00:00 -- 6 Sur 14 Sur 0 -- -- 89
2020-05-02 03:00:00 -- 2 Noroeste 9 Sudoeste 0 -- -- 88
2020-05-02 02:00:00 -- 5 Sudoeste 11 Oeste 0 -- -- 86
2020-05-02 01:00:00 -- 0 Calma 15 Sudeste 0 -- -- 86
2020-05-02 00:00:00 -- 0 Calma 5 Sur 0 -- -- 84